createdAt,value
2019-05-10T00:00:29.288Z,0
2019-05-10T00:01:29.716Z,0
2019-05-10T00:02:30.509Z,0
2019-05-10T00:03:30.492Z,0
2019-05-10T00:04:31.223Z,0
2019-05-10T00:05:32.219Z,0
2019-05-10T00:06:32.347Z,0
2019-05-10T00:07:32.480Z,0
2019-05-10T00:08:33.210Z,0
2019-05-10T00:09:33.888Z,0
2019-05-10T00:10:34.024Z,0
2019-05-10T00:11:34.739Z,0
2019-05-10T00:12:35.222Z,0
2019-05-10T00:13:36.227Z,0
2019-05-10T00:14:36.660Z,0
2019-05-10T00:15:37.372Z,0
2019-05-10T00:16:38.103Z,0
2019-05-10T00:17:38.792Z,0
2019-05-10T00:18:39.183Z,0
2019-05-10T00:19:39.884Z,0
2019-05-10T00:20:40.299Z,0
2019-05-10T00:21:40.713Z,0
2019-05-10T00:22:41.139Z,0
2019-05-10T00:23:40.942Z,0
2019-05-10T00:24:41.362Z,0
2019-05-10T00:25:42.468Z,0
2019-05-10T00:26:42.884Z,0
2019-05-10T00:27:42.999Z,0
2019-05-10T00:28:43.413Z,0
2019-05-10T00:29:43.833Z,0
2019-05-10T00:30:44.522Z,0
2019-05-10T00:31:44.951Z,0
2019-05-10T00:32:45.099Z,0
2019-05-10T00:33:45.911Z,0
2019-05-10T00:34:46.586Z,0
2019-05-10T00:35:46.706Z,0
2019-05-10T00:36:47.126Z,0
2019-05-10T00:37:47.519Z,0
2019-05-10T00:38:47.934Z,0
2019-05-10T00:39:48.691Z,0
2019-05-10T00:40:49.110Z,0
2019-05-10T00:41:49.811Z,0
2019-05-10T00:42:50.500Z,0
2019-05-10T00:43:51.311Z,0
2019-05-10T00:44:51.440Z,0
2019-05-10T00:45:52.155Z,0
2019-05-10T00:46:52.922Z,0
2019-05-10T00:47:53.646Z,0
2019-05-10T00:48:53.771Z,0
2019-05-10T00:49:54.487Z,0
2019-05-10T00:50:54.615Z,0
2019-05-10T00:51:55.016Z,0
2019-05-10T00:52:55.706Z,0
2019-05-10T00:53:56.369Z,0
2019-05-10T00:54:57.639Z,0
2019-05-10T00:55:57.474Z,0
2019-05-10T00:56:58.152Z,0
2019-05-10T00:57:58.936Z,0
2019-05-10T00:58:59.913Z,0
2019-05-10T01:00:00.603Z,0
2019-05-10T01:01:01.297Z,0
2019-05-10T01:02:01.783Z,0
2019-05-10T01:03:02.578Z,0
2019-05-10T01:04:03.519Z,0
2019-05-10T01:05:03.642Z,0
2019-05-10T01:06:03.826Z,0
2019-05-10T01:07:07.681Z,0
2019-05-10T01:08:04.797Z,0
2019-05-10T01:09:04.916Z,0
2019-05-10T01:10:05.623Z,0
2019-05-10T01:11:06.633Z,0
2019-05-10T01:12:07.097Z,0
2019-05-10T01:13:07.216Z,0
2019-05-10T01:14:07.738Z,0
2019-05-10T01:15:08.713Z,0
2019-05-10T01:16:09.131Z,0
2019-05-10T01:17:09.258Z,0
2019-05-10T01:18:09.947Z,0
2019-05-10T01:19:10.356Z,0
2019-05-10T01:20:10.513Z,0
2019-05-10T01:21:10.629Z,0
2019-05-10T01:22:11.388Z,0
2019-05-10T01:23:11.804Z,0
2019-05-10T01:24:13.354Z,0
2019-05-10T01:25:13.467Z,0
2019-05-10T01:26:14.795Z,0
2019-05-10T01:27:15.229Z,0
2019-05-10T01:28:16.244Z,0
2019-05-10T01:29:16.994Z,0
2019-05-10T01:30:17.118Z,0
2019-05-10T01:31:17.536Z,0
2019-05-10T01:32:17.946Z,0
2019-05-10T01:33:18.067Z,0
2019-05-10T01:34:19.005Z,0
2019-05-10T01:35:19.135Z,0
2019-05-10T01:36:19.306Z,0
2019-05-10T01:37:19.995Z,0
2019-05-10T01:38:20.418Z,0
2019-05-10T01:39:20.538Z,0
2019-05-10T01:40:21.243Z,0
2019-05-10T01:41:21.953Z,0
2019-05-10T01:42:22.634Z,0
2019-05-10T01:43:23.045Z,0
2019-05-10T01:44:22.980Z,0
2019-05-10T01:45:23.101Z,0
2019-05-10T01:46:24.143Z,0
2019-05-10T01:47:24.565Z,0
2019-05-10T01:48:24.686Z,0
2019-05-10T01:49:25.094Z,0
2019-05-10T01:50:25.213Z,0
2019-05-10T01:51:27.876Z,0
2019-05-10T01:52:26.174Z,0
2019-05-10T01:53:27.187Z,0
2019-05-10T01:54:27.447Z,0
2019-05-10T01:55:27.577Z,0
2019-05-10T01:56:28.901Z,0
2019-05-10T01:57:29.290Z,0
2019-05-10T01:58:29.693Z,0
2019-05-10T01:59:30.094Z,0
2019-05-10T02:00:30.527Z,0
2019-05-10T02:01:30.940Z,0
2019-05-10T02:02:31.351Z,0
2019-05-10T02:03:32.524Z,0
2019-05-10T02:04:32.471Z,0
2019-05-10T02:05:32.875Z,0
2019-05-10T02:06:32.993Z,0
2019-05-10T02:07:33.411Z,0
2019-05-10T02:08:34.136Z,0
2019-05-10T02:09:38.719Z,0
2019-05-10T02:10:35.133Z,0
2019-05-10T02:11:35.264Z,0
2019-05-10T02:12:35.386Z,0
2019-05-10T02:13:35.800Z,0
2019-05-10T02:14:36.345Z,0
2019-05-10T02:15:37.328Z,0
2019-05-10T02:16:37.727Z,0
2019-05-10T02:17:38.460Z,0
2019-05-10T02:18:39.153Z,0
2019-05-10T02:19:39.891Z,0
2019-05-10T02:20:40.312Z,0
2019-05-10T02:21:40.718Z,0
2019-05-10T02:22:41.129Z,0
2019-05-10T02:23:41.839Z,0
2019-05-10T02:24:42.060Z,0
2019-05-10T02:25:42.734Z,0
2019-05-10T02:26:42.859Z,0
2019-05-10T02:27:43.010Z,0
2019-05-10T02:28:43.421Z,0
2019-05-10T02:29:44.403Z,0
2019-05-10T02:30:45.230Z,0
2019-05-10T02:31:44.935Z,0
2019-05-10T02:32:45.355Z,0
2019-05-10T02:33:46.070Z,0
2019-05-10T02:34:46.303Z,0
2019-05-10T02:35:46.424Z,0
2019-05-10T02:36:46.836Z,0
2019-05-10T02:37:47.538Z,0
2019-05-10T02:38:48.258Z,0
2019-05-10T02:39:48.404Z,0
2019-05-10T02:40:48.856Z,0
2019-05-10T02:41:49.607Z,0
2019-05-10T02:42:50.091Z,0
2019-05-10T02:43:51.144Z,0
2019-05-10T02:44:51.537Z,0
2019-05-10T02:45:51.274Z,0
2019-05-10T02:46:52.309Z,0
2019-05-10T02:47:53.341Z,0
2019-05-10T02:48:53.642Z,0
2019-05-10T02:49:54.063Z,0
2019-05-10T02:50:55.201Z,0
2019-05-10T02:51:56.197Z,0
2019-05-10T02:52:57.184Z,0
2019-05-10T02:53:57.169Z,0
2019-05-10T02:54:57.402Z,0
2019-05-10T02:55:58.121Z,0
2019-05-10T02:56:58.806Z,0
2019-05-10T02:57:59.523Z,0
2019-05-10T02:59:00.240Z,0
2019-05-10T03:00:01.004Z,0
2019-05-10T03:01:01.419Z,0
2019-05-10T03:02:02.150Z,0
2019-05-10T03:03:02.881Z,0
2019-05-10T03:04:03.885Z,0
2019-05-10T03:05:04.426Z,0
2019-05-10T03:06:04.571Z,0
2019-05-10T03:07:05.415Z,0
2019-05-10T03:08:06.462Z,0
2019-05-10T03:09:07.175Z,0
2019-05-10T03:10:07.464Z,0
2019-05-10T03:11:07.871Z,0
2019-05-10T03:12:08.869Z,0
2019-05-10T03:13:09.577Z,0
2019-05-10T03:14:10.295Z,0
2019-05-10T03:15:11.048Z,0
2019-05-10T03:16:11.794Z,0
2019-05-10T03:17:12.785Z,0
2019-05-10T03:18:13.222Z,4
2019-05-10T03:19:14.214Z,4
2019-05-10T03:20:14.347Z,0
2019-05-10T03:21:15.347Z,0
2019-05-10T03:22:16.044Z,4
2019-05-10T03:23:16.787Z,4
2019-05-10T03:24:17.258Z,0
2019-05-10T03:25:18.012Z,4
2019-05-10T03:26:18.770Z,4
2019-05-10T03:27:19.571Z,4
2019-05-10T03:28:20.873Z,8
2019-05-10T03:29:21.627Z,4
2019-05-10T03:30:22.462Z,8
2019-05-10T03:31:23.263Z,12
2019-05-10T03:32:23.319Z,12
2019-05-10T03:33:23.785Z,12
2019-05-10T03:34:24.866Z,12
2019-05-10T03:35:25.605Z,16
2019-05-10T03:36:25.193Z,20
2019-05-10T03:37:25.978Z,20
2019-05-10T03:38:27.300Z,24
2019-05-10T03:39:27.018Z,28
2019-05-10T03:40:28.304Z,28
2019-05-10T03:41:29.023Z,36
2019-05-10T03:42:30.015Z,40
2019-05-10T03:43:29.999Z,44
2019-05-10T03:44:31.131Z,52
2019-05-10T03:45:31.676Z,56
2019-05-10T03:46:32.693Z,64
2019-05-10T03:47:32.837Z,72
2019-05-10T03:48:33.609Z,80
2019-05-10T03:49:34.336Z,84
2019-05-10T03:50:34.757Z,88
2019-05-10T03:51:36.025Z,96
2019-05-10T03:52:36.457Z,104
2019-05-10T03:53:37.246Z,116
2019-05-10T03:54:37.657Z,124
2019-05-10T03:55:38.531Z,132
2019-05-10T03:56:41.139Z,140
2019-05-10T03:57:40.183Z,144
2019-05-10T03:58:40.261Z,152
2019-05-10T03:59:40.707Z,160
2019-05-10T04:00:41.704Z,168
2019-05-10T04:01:41.709Z,180
2019-05-10T04:02:42.108Z,192
2019-05-10T04:03:42.835Z,208
2019-05-10T04:04:43.564Z,220
2019-05-10T04:05:43.812Z,224
2019-05-10T04:06:44.861Z,236
2019-05-10T04:07:45.287Z,248
2019-05-10T04:08:45.988Z,252
2019-05-10T04:09:46.462Z,260
2019-05-10T04:10:46.886Z,268
2019-05-10T04:11:47.896Z,280
2019-05-10T04:12:48.636Z,296
2019-05-10T04:13:49.044Z,316
2019-05-10T04:14:50.048Z,344
2019-05-10T04:15:50.401Z,352
2019-05-10T04:16:50.528Z,336
2019-05-10T04:17:56.225Z,356
2019-05-10T04:18:51.654Z,376
2019-05-10T04:19:52.301Z,400
2019-05-10T04:20:53.200Z,420
2019-05-10T04:21:54.194Z,432
2019-05-10T04:22:54.922Z,452
2019-05-10T04:23:55.623Z,492
2019-05-10T04:24:56.050Z,548
2019-05-10T04:25:57.159Z,632
2019-05-10T04:26:57.578Z,740
2019-05-10T04:27:58.279Z,864
2019-05-10T04:28:58.687Z,996
2019-05-10T04:29:59.411Z,1052
2019-05-10T04:31:00.398Z,1020
2019-05-10T04:32:00.829Z,980
2019-05-10T04:33:01.540Z,940
2019-05-10T04:34:01.669Z,904
2019-05-10T04:35:02.658Z,864
2019-05-10T04:36:03.472Z,772
2019-05-10T04:37:04.160Z,700
2019-05-10T04:38:04.882Z,648
2019-05-10T04:39:05.594Z,604
2019-05-10T04:40:06.364Z,580
2019-05-10T04:41:06.847Z,568
2019-05-10T04:42:07.254Z,552
2019-05-10T04:43:08.539Z,540
2019-05-10T04:44:08.953Z,532
2019-05-10T04:45:09.415Z,540
2019-05-10T04:46:10.985Z,540
2019-05-10T04:47:10.712Z,512
2019-05-10T04:48:11.712Z,460
2019-05-10T04:49:12.440Z,416
2019-05-10T04:50:12.169Z,400
2019-05-10T04:51:12.877Z,404
2019-05-10T04:52:13.385Z,420
2019-05-10T04:53:14.359Z,436
2019-05-10T04:54:14.786Z,456
2019-05-10T04:55:15.511Z,476
2019-05-10T04:56:15.745Z,512
2019-05-10T04:57:16.455Z,556
2019-05-10T04:58:17.459Z,608
2019-05-10T04:59:17.885Z,684
2019-05-10T05:00:18.591Z,744
2019-05-10T05:01:18.585Z,772
2019-05-10T05:02:22.000Z,808
2019-05-10T05:03:20.013Z,856
2019-05-10T05:04:20.723Z,916
2019-05-10T05:05:21.429Z,916
2019-05-10T05:06:21.339Z,920
2019-05-10T05:07:21.804Z,872
2019-05-10T05:08:22.833Z,872
2019-05-10T05:09:22.967Z,868
2019-05-10T05:10:23.940Z,868
2019-05-10T05:11:24.092Z,872
2019-05-10T05:12:24.513Z,880
2019-05-10T05:13:24.952Z,884
2019-05-10T05:14:25.633Z,868
2019-05-10T05:15:26.120Z,840
2019-05-10T05:16:26.822Z,804
2019-05-10T05:17:27.218Z,748
2019-05-10T05:18:27.389Z,688
2019-05-10T05:19:28.107Z,640
2019-05-10T05:20:28.816Z,600
2019-05-10T05:21:29.528Z,564
2019-05-10T05:22:29.945Z,532
2019-05-10T05:23:30.680Z,508
2019-05-10T05:24:34.269Z,492
2019-05-10T05:25:35.078Z,496
2019-05-10T05:26:32.020Z,500
2019-05-10T05:27:32.716Z,504
2019-05-10T05:28:34.321Z,516
2019-05-10T05:29:34.021Z,532
2019-05-10T05:30:38.387Z,536
2019-05-10T05:31:35.114Z,520
2019-05-10T05:32:38.335Z,500
2019-05-10T05:33:35.630Z,488
2019-05-10T05:34:36.331Z,484
2019-05-10T05:35:36.783Z,480
2019-05-10T05:36:37.032Z,468
2019-05-10T05:37:37.711Z,456
2019-05-10T05:38:40.273Z,432
2019-05-10T05:39:38.361Z,420
2019-05-10T05:40:39.127Z,420
2019-05-10T05:41:57.211Z,440
2019-05-10T05:42:40.681Z,456
2019-05-10T05:43:45.281Z,472
2019-05-10T05:44:40.534Z,488
2019-05-10T05:45:45.246Z,512
2019-05-10T05:46:41.484Z,532
2019-05-10T05:47:49.554Z,552
2019-05-10T05:48:51.731Z,572
2019-05-10T05:49:42.857Z,580
2019-05-10T05:50:43.298Z,592
2019-05-10T05:51:44.312Z,596
2019-05-10T05:52:44.962Z,604
2019-05-10T05:53:52.387Z,608
2019-05-10T05:54:45.184Z,620
2019-05-10T05:55:45.207Z,636
2019-05-10T05:56:56.314Z,676
2019-05-10T05:57:46.736Z,704
2019-05-10T05:58:52.652Z,732
2019-05-10T05:59:49.119Z,740
2019-05-10T06:00:55.941Z,756
2019-05-10T06:01:49.081Z,780
2019-05-10T06:02:55.079Z,824
2019-05-10T06:03:50.214Z,860
2019-05-10T06:04:53.119Z,896
2019-05-10T06:05:51.823Z,916
2019-05-10T06:06:53.591Z,916
2019-05-10T06:07:57.559Z,896
2019-05-10T06:08:54.334Z,880
2019-05-10T06:09:53.699Z,872
2019-05-10T06:11:08.865Z,876
2019-05-10T06:11:54.625Z,876
2019-05-10T06:13:03.452Z,900
2019-05-10T06:13:56.823Z,928
2019-05-10T06:15:01.076Z,948
2019-05-10T06:15:59.750Z,964
2019-05-10T06:17:04.254Z,1008
2019-05-10T06:18:17.423Z,1060
2019-05-10T06:19:05.549Z,1076
2019-05-10T06:20:13.078Z,1108
2019-05-10T06:21:07.120Z,1152
2019-05-10T06:22:12.240Z,1224
2019-05-10T06:23:17.690Z,1264
2019-05-10T06:24:21.113Z,1280
2019-05-10T06:25:09.195Z,1276
2019-05-10T06:26:20.527Z,1236
2019-05-10T06:27:16.660Z,1208
2019-05-10T06:29:16.047Z,1228
2019-05-10T06:29:33.792Z,1228
2019-05-10T06:30:34.912Z,1216
2019-05-10T06:31:34.457Z,1180
2019-05-10T06:32:34.677Z,1164
2019-05-10T06:33:39.546Z,1172
2019-05-10T06:34:45.237Z,1164
2019-05-10T06:35:36.489Z,1144
2019-05-10T06:36:37.989Z,1112
2019-05-10T06:37:38.623Z,1092
2019-05-10T06:38:39.571Z,1060
2019-05-10T06:39:38.990Z,1040
2019-05-10T06:40:53.742Z,1032
2019-05-10T06:41:43.757Z,1032
2019-05-10T06:42:46.146Z,1036
2019-05-10T06:43:45.544Z,1056
2019-05-10T06:44:44.107Z,1080
2019-05-10T06:45:46.545Z,1116
2019-05-10T06:46:43.151Z,1148
2019-05-10T06:47:53.628Z,1180
2019-05-10T06:48:44.769Z,1188
2019-05-10T06:49:56.406Z,1208
2019-05-10T06:50:45.815Z,1216
2019-05-10T06:51:55.050Z,1256
2019-05-10T06:52:47.511Z,1300
2019-05-10T06:53:59.610Z,1376
2019-05-10T06:54:48.338Z,1436
2019-05-10T06:55:49.034Z,1512
2019-05-10T06:56:49.765Z,1588
2019-05-10T06:58:05.711Z,1676
2019-05-10T06:58:51.177Z,1728
2019-05-10T06:59:51.289Z,1780
2019-05-10T07:00:55.845Z,1812
2019-05-10T07:01:57.916Z,1824
2019-05-10T07:02:52.879Z,1844
2019-05-10T07:03:53.013Z,1892
2019-05-10T07:04:53.815Z,1964
2019-05-10T07:05:54.594Z,2064
2019-05-10T07:06:55.064Z,2156
2019-05-10T07:07:59.429Z,2244
2019-05-10T07:09:08.442Z,2304
2019-05-10T07:10:28.119Z,2336
2019-05-10T07:10:58.310Z,2332
2019-05-10T07:11:59.048Z,2292
2019-05-10T07:13:11.862Z,2196
2019-05-10T07:14:03.929Z,2152
2019-05-10T07:15:09.224Z,2164
2019-05-10T07:15:59.713Z,2184
2019-05-10T07:17:08.095Z,2148
2019-05-10T07:18:00.955Z,2100
2019-05-10T07:19:10.794Z,2096
2019-05-10T07:20:06.035Z,2052
2019-05-10T07:21:12.344Z,1928
2019-05-10T07:22:02.761Z,1872
2019-05-10T07:23:11.612Z,1888
2019-05-10T07:24:03.078Z,1892
2019-05-10T07:25:13.921Z,1884
2019-05-10T07:26:04.377Z,1948
2019-05-10T07:27:11.375Z,2032
2019-05-10T07:28:09.200Z,2048
2019-05-10T07:29:08.691Z,2044
2019-05-10T07:30:06.770Z,2088
2019-05-10T07:31:07.206Z,2208
2019-05-10T07:32:08.213Z,2276
2019-05-10T07:33:10.824Z,2268
2019-05-10T07:34:09.604Z,2180
2019-05-10T07:35:11.838Z,2164
2019-05-10T07:36:14.624Z,2192
2019-05-10T07:37:12.641Z,2268
2019-05-10T07:38:10.445Z,2360
2019-05-10T07:39:16.287Z,2472
2019-05-10T07:40:14.682Z,2568
2019-05-10T07:41:12.523Z,2680
2019-05-10T07:42:17.186Z,2828
2019-05-10T07:43:24.612Z,2904
2019-05-10T07:44:18.639Z,2928
2019-05-10T07:45:18.597Z,2896
2019-05-10T07:46:17.618Z,2884
2019-05-10T07:47:16.336Z,2968
2019-05-10T07:48:22.682Z,3172
2019-05-10T07:49:17.844Z,3352
2019-05-10T07:50:20.620Z,3480
2019-05-10T07:51:22.712Z,3640
2019-05-10T07:52:18.939Z,3824
2019-05-10T07:53:28.615Z,3908
2019-05-10T07:54:20.330Z,3852
2019-05-10T07:55:33.467Z,3640
2019-05-10T07:56:20.895Z,3744
2019-05-10T07:57:30.728Z,4056
2019-05-10T07:58:22.243Z,4268
2019-05-10T07:59:50.429Z,4708
2019-05-10T08:00:25.286Z,4984
2019-05-10T08:01:40.158Z,5248
2019-05-10T08:02:25.826Z,4856
2019-05-10T08:03:30.287Z,5348
2019-05-10T08:04:38.955Z,5076
2019-05-10T08:05:26.508Z,5204
2019-05-10T08:06:31.201Z,5708
2019-05-10T08:07:29.567Z,6084
2019-05-10T08:08:29.857Z,6432
2019-05-10T08:09:31.739Z,6788
2019-05-10T08:10:34.969Z,6460
2019-05-10T08:11:30.197Z,7124
2019-05-10T08:12:30.226Z,7496
2019-05-10T08:13:34.687Z,6936
2019-05-10T08:14:33.586Z,7640
2019-05-10T08:15:40.423Z,7492
2019-05-10T08:16:34.546Z,7460
2019-05-10T08:17:35.297Z,6856
2019-05-10T08:18:36.508Z,6708
2019-05-10T08:19:43.150Z,6316
2019-05-10T08:21:18.618Z,6608
2019-05-10T08:21:38.326Z,6944
2019-05-10T08:22:52.588Z,7848
2019-05-10T08:23:40.977Z,9192
2019-05-10T08:25:02.259Z,8252
2019-05-10T08:25:53.606Z,8404
2019-05-10T08:26:44.054Z,9008
2019-05-10T08:28:03.369Z,10488
2019-05-10T08:28:58.042Z,9296
2019-05-10T08:30:34.619Z,8948
2019-05-10T08:31:12.062Z,9044
2019-05-10T08:32:08.880Z,9144
2019-05-10T08:33:19.904Z,9448
2019-05-10T08:34:11.724Z,7760
2019-05-10T08:35:15.903Z,7264
2019-05-10T08:36:12.270Z,6124
2019-05-10T08:37:09.087Z,5580
2019-05-10T08:38:12.683Z,5128
2019-05-10T08:39:27.514Z,4728
2019-05-10T08:40:37.795Z,4552
2019-05-10T08:41:28.449Z,4492
2019-05-10T08:43:08.586Z,4340
2019-05-10T08:43:43.234Z,4324
2019-05-10T08:44:32.653Z,4292
2019-05-10T08:45:29.449Z,4276
2019-05-10T08:46:49.429Z,4376
2019-05-10T08:47:37.799Z,4580
2019-05-10T08:48:37.959Z,4924
2019-05-10T08:50:53.926Z,5880
2019-05-10T08:51:18.692Z,6228
2019-05-10T08:52:19.255Z,7164
2019-05-10T08:53:23.068Z,6860
2019-05-10T08:54:18.655Z,6700
2019-05-10T08:55:18.838Z,6704
2019-05-10T08:56:29.963Z,7016
2019-05-10T08:57:24.385Z,6996
2019-05-10T08:58:21.515Z,6696
2019-05-10T08:59:35.869Z,6668
2019-05-10T09:01:11.925Z,6964
2019-05-10T09:01:59.160Z,6864
2019-05-10T09:02:43.482Z,6892
2019-05-10T09:03:47.020Z,7020
2019-05-10T09:04:58.143Z,7812
2019-05-10T09:05:48.399Z,7756
2019-05-10T09:06:47.376Z,7684
2019-05-10T09:07:52.047Z,8100
2019-05-10T09:08:52.688Z,7700
2019-05-10T09:10:01.979Z,7652
2019-05-10T09:10:53.993Z,8204
2019-05-10T09:12:08.859Z,8156
2019-05-10T09:13:08.471Z,7624
2019-05-10T09:14:03.403Z,7492
2019-05-10T09:15:15.764Z,6844
2019-05-10T09:16:02.687Z,6440
2019-05-10T09:17:14.609Z,6232
2019-05-10T09:18:03.015Z,6148
2019-05-10T09:19:04.269Z,5872
2019-05-10T09:20:02.398Z,5832
2019-05-10T09:21:15.850Z,6064
2019-05-10T09:22:07.764Z,6492
2019-05-10T09:23:03.547Z,6744
2019-05-10T09:24:12.862Z,6796
2019-05-10T09:25:04.434Z,6632
2019-05-10T09:26:22.622Z,6680
2019-05-10T09:27:07.844Z,6612
2019-05-10T09:28:22.048Z,6520
2019-05-10T09:29:08.907Z,6544
2019-05-10T09:30:13.018Z,6584
2019-05-10T09:31:33.987Z,6668
2019-05-10T09:32:39.910Z,7112
2019-05-10T09:33:29.249Z,7152
2019-05-10T09:34:37.931Z,7164
2019-05-10T09:35:33.138Z,7084
2019-05-10T09:36:43.745Z,6568
2019-05-10T09:37:33.737Z,6444
2019-05-10T09:38:44.031Z,6672
2019-05-10T09:39:37.905Z,6860
2019-05-10T09:40:33.324Z,6852
2019-05-10T09:41:44.643Z,6668
2019-05-10T09:42:49.010Z,6452
2019-05-10T09:43:40.336Z,6316
2019-05-10T09:44:35.156Z,6096
2019-05-10T09:45:38.379Z,5784
2019-05-10T09:46:38.154Z,5520
2019-05-10T09:47:42.979Z,5464
2019-05-10T09:48:44.452Z,5524
2019-05-10T09:49:38.692Z,5720
2019-05-10T09:50:55.810Z,6232
2019-05-10T09:51:48.612Z,6688
2019-05-10T09:52:47.611Z,7136
2019-05-10T09:53:49.031Z,7612
2019-05-10T09:54:49.514Z,8192
2019-05-10T09:56:03.069Z,7732
2019-05-10T09:56:58.078Z,7492
2019-05-10T09:57:53.143Z,9828
2019-05-10T09:58:53.612Z,7640
2019-05-10T09:59:52.504Z,7188
2019-05-10T10:01:09.397Z,6884
2019-05-10T10:02:04.929Z,6832
2019-05-10T10:03:18.184Z,7648
2019-05-10T10:04:07.943Z,7412
2019-05-10T10:05:09.628Z,8460
2019-05-10T10:06:16.945Z,8316
2019-05-10T10:07:07.479Z,7880
2019-05-10T10:08:17.597Z,7412
2019-05-10T10:09:17.121Z,7768
2019-05-10T10:10:12.586Z,6264
2019-05-10T10:11:24.676Z,6812
2019-05-10T10:12:17.357Z,6928
2019-05-10T10:13:58.072Z,6112
2019-05-10T10:14:17.901Z,6476
2019-05-10T10:15:39.254Z,7496
2019-05-10T10:16:24.675Z,6972
2019-05-10T10:17:22.651Z,6836
2019-05-10T10:18:28.363Z,7876
2019-05-10T10:19:20.301Z,10028
2019-05-10T10:20:21.889Z,15360
2019-05-10T10:21:40.483Z,10140
2019-05-10T10:22:33.226Z,8512
2019-05-10T10:23:43.319Z,7824
2019-05-10T10:24:33.963Z,10048
2019-05-10T10:25:42.179Z,8900
2019-05-10T10:26:34.379Z,7896
2019-05-10T10:27:45.056Z,8488
2019-05-10T10:28:37.260Z,11384
2019-05-10T10:29:44.429Z,7896
2019-05-10T10:30:38.477Z,7080
2019-05-10T10:32:01.070Z,8276
2019-05-10T10:32:50.094Z,9584
2019-05-10T10:34:08.809Z,8984
2019-05-10T10:35:00.847Z,9552
2019-05-10T10:35:56.101Z,9072
2019-05-10T10:36:54.684Z,8764
2019-05-10T10:37:57.359Z,8116
2019-05-10T10:39:00.684Z,7612
2019-05-10T10:40:09.224Z,9528
2019-05-10T10:40:57.549Z,8368
2019-05-10T10:42:02.345Z,8468
2019-05-10T10:42:54.784Z,8264
2019-05-10T10:43:55.235Z,7608
2019-05-10T10:44:55.372Z,7376
2019-05-10T10:45:57.366Z,7476
2019-05-10T10:46:58.903Z,7812
2019-05-10T10:48:02.355Z,7576
2019-05-10T10:49:00.354Z,7720
2019-05-10T10:49:57.873Z,7984
2019-05-10T10:51:04.938Z,8256
2019-05-10T10:52:05.523Z,9428
2019-05-10T10:52:59.465Z,9560
2019-05-10T10:54:03.933Z,9280
2019-05-10T10:55:00.175Z,9632
2019-05-10T10:56:09.793Z,9236
2019-05-10T10:57:05.138Z,9452
2019-05-10T10:58:03.813Z,9672
2019-05-10T10:59:03.809Z,10056
2019-05-10T11:00:07.612Z,11096
2019-05-10T11:01:08.310Z,10264
2019-05-10T11:02:41.600Z,10052
2019-05-10T11:03:48.622Z,9640
2019-05-10T11:04:55.540Z,10524
2019-05-10T11:05:45.579Z,9160
2019-05-10T11:06:46.676Z,8736
2019-05-10T11:07:56.977Z,8604
2019-05-10T11:08:51.985Z,8896
2019-05-10T11:09:53.566Z,9124
2019-05-10T11:10:52.747Z,8664
2019-05-10T11:12:00.903Z,9208
2019-05-10T11:12:56.167Z,9096
2019-05-10T11:14:20.394Z,10612
2019-05-10T11:15:16.305Z,9732
2019-05-10T11:16:21.740Z,9296
2019-05-10T11:17:11.833Z,9516
2019-05-10T11:18:11.878Z,8828
2019-05-10T11:19:21.108Z,10136
2019-05-10T11:20:16.890Z,9928
2019-05-10T11:21:16.765Z,11336
2019-05-10T11:22:21.534Z,12800
2019-05-10T11:23:17.141Z,12064
2019-05-10T11:24:27.995Z,11540
2019-05-10T11:25:21.261Z,10252
2019-05-10T11:26:16.669Z,9812
2019-05-10T11:27:23.072Z,10220
2019-05-10T11:28:20.641Z,12168
2019-05-10T11:29:33.154Z,13536
2019-05-10T11:30:18.334Z,9908
2019-05-10T11:31:21.152Z,10288
2019-05-10T11:32:28.835Z,11516
2019-05-10T11:33:41.408Z,9932
2019-05-10T11:34:53.460Z,9584
2019-05-10T11:35:57.540Z,11964
2019-05-10T11:36:59.229Z,10856
2019-05-10T11:37:56.690Z,11924
2019-05-10T11:39:05.900Z,16896
2019-05-10T11:39:57.676Z,15584
2019-05-10T11:40:54.828Z,9900
2019-05-10T11:42:15.289Z,14816
2019-05-10T11:43:01.535Z,9404
2019-05-10T11:43:57.769Z,8804
2019-05-10T11:45:06.620Z,9292
2019-05-10T11:46:05.757Z,12608
2019-05-10T11:47:20.849Z,8140
2019-05-10T11:48:17.019Z,10512
2019-05-10T11:49:10.603Z,13696
2019-05-10T11:50:41.254Z,13536
2019-05-10T11:51:24.477Z,5996
2019-05-10T11:52:21.505Z,11844
2019-05-10T11:53:24.093Z,11112
2019-05-10T11:54:13.563Z,8320
2019-05-10T11:55:17.875Z,12480
2019-05-10T11:56:26.768Z,8076
2019-05-10T11:59:22.050Z,11948
2019-05-10T11:59:52.071Z,10496
2019-05-10T12:00:56.479Z,11664
2019-05-10T12:02:09.344Z,8360
2019-05-10T12:05:01.085Z,7448
2019-05-10T12:05:42.235Z,9916
2019-05-10T12:06:32.182Z,14592
2019-05-10T12:07:54.601Z,14624
2019-05-10T12:10:42.337Z,12108
2019-05-10T12:12:12.150Z,8620
2019-05-10T12:15:31.751Z,8420
2019-05-10T12:15:51.735Z,7744
2019-05-10T12:16:48.892Z,7228
2019-05-10T12:18:13.895Z,15680
2019-05-10T12:21:21.801Z,8744
2019-05-10T12:21:38.935Z,8544
2019-05-10T12:27:39.969Z,9164
2019-05-10T12:28:46.704Z,7708
2019-05-10T12:29:46.471Z,8912
2019-05-10T12:30:50.886Z,10784
2019-05-10T12:31:47.332Z,13952
2019-05-10T12:33:23.758Z,11680
2019-05-10T12:33:51.861Z,8972
2019-05-10T12:35:01.429Z,8432
2019-05-10T12:35:57.305Z,8316
2019-05-10T12:36:51.728Z,10288
2019-05-10T12:38:01.602Z,8792
2019-05-10T12:38:49.643Z,11400
2019-05-10T12:39:47.763Z,11576
2019-05-10T12:40:51.540Z,10240
2019-05-10T12:41:58.366Z,11540
2019-05-10T12:42:53.643Z,9516
2019-05-10T12:44:03.299Z,8740
2019-05-10T12:45:03.050Z,9996
2019-05-10T12:45:53.387Z,12168
2019-05-10T12:46:54.119Z,16928
2019-05-10T12:47:52.867Z,8864
2019-05-10T12:48:58.713Z,8660
2019-05-10T12:50:08.936Z,8308
2019-05-10T12:51:07.710Z,8052
2019-05-10T12:51:57.177Z,10148
2019-05-10T12:53:23.775Z,9428
2019-05-10T12:54:00.700Z,9568
2019-05-10T12:54:56.836Z,9072
2019-05-10T12:55:56.974Z,7648
2019-05-10T12:56:57.432Z,11228
2019-05-10T12:57:57.744Z,15072
2019-05-10T12:59:07.868Z,14016
2019-05-10T12:59:58.558Z,13408
2019-05-10T13:01:04.846Z,12800
2019-05-10T13:02:15.513Z,12544
2019-05-10T13:03:19.731Z,12352
2019-05-10T13:04:02.066Z,12224
2019-05-10T13:05:03.958Z,12288
2019-05-10T13:06:03.905Z,13024
2019-05-10T13:07:02.885Z,7260
2019-05-10T13:08:03.609Z,9720
2019-05-10T13:09:04.365Z,8660
2019-05-10T13:10:15.615Z,6308
2019-05-10T13:11:05.460Z,7524
2019-05-10T13:12:13.960Z,6936
2019-05-10T13:13:06.157Z,11348
2019-05-10T13:14:14.715Z,6992
2019-05-10T13:15:06.849Z,6376
2019-05-10T13:16:17.223Z,6100
2019-05-10T13:17:16.971Z,10216
2019-05-10T13:18:08.898Z,8204
2019-05-10T13:19:13.994Z,4752
2019-05-10T13:20:11.269Z,9348
2019-05-10T13:21:25.238Z,11368
2019-05-10T13:22:13.269Z,11048
2019-05-10T13:23:22.068Z,10720
2019-05-10T13:24:12.211Z,10576
2019-05-10T13:25:13.198Z,10476
2019-05-10T13:26:14.219Z,10460
2019-05-10T13:27:14.926Z,10524
2019-05-10T13:28:17.397Z,10608
2019-05-10T13:29:19.516Z,4520
2019-05-10T13:30:15.807Z,5004
2019-05-10T13:31:20.582Z,8908
2019-05-10T13:32:27.210Z,12000
2019-05-10T13:34:18.101Z,11536
2019-05-10T13:35:19.077Z,6528
2019-05-10T13:36:20.003Z,8264
2019-05-10T13:37:31.272Z,5780
2019-05-10T13:38:20.702Z,5680
2019-05-10T13:39:31.272Z,6004
2019-05-10T13:40:22.295Z,12992
2019-05-10T13:41:28.306Z,12352
2019-05-10T13:42:23.715Z,11192
2019-05-10T13:43:33.642Z,5656
2019-05-10T13:44:24.778Z,5124
2019-05-10T13:45:25.493Z,4624
2019-05-10T13:46:26.240Z,4612
2019-05-10T13:47:26.737Z,5432
2019-05-10T13:48:33.286Z,5540
2019-05-10T13:49:29.208Z,5612
2019-05-10T13:50:30.301Z,5776
2019-05-10T13:51:28.435Z,5656
2019-05-10T13:52:46.175Z,9824
2019-05-10T13:53:33.893Z,11840
2019-05-10T13:54:44.104Z,8052
2019-05-10T13:55:31.912Z,10844
2019-05-10T13:56:31.257Z,11308
2019-05-10T13:57:31.946Z,8068
2019-05-10T13:58:31.529Z,9416
2019-05-10T13:59:31.674Z,7888
2019-05-10T14:00:41.617Z,5752
2019-05-10T14:01:32.749Z,5640
2019-05-10T14:02:43.396Z,5844
2019-05-10T14:04:00.450Z,6172
2019-05-10T14:04:45.651Z,10976
2019-05-10T14:05:35.081Z,4540
2019-05-10T14:06:35.568Z,4044
2019-05-10T14:07:36.292Z,4036
2019-05-10T14:08:36.364Z,4312
2019-05-10T14:09:37.420Z,4468
2019-05-10T14:10:38.409Z,4504